createdAt,value
2023-03-03T00:00:19.698Z,100526.66
2023-03-03T00:03:16.687Z,100523.47
2023-03-03T00:05:49.710Z,100520.89
2023-03-03T00:08:23.245Z,100515.99
2023-03-03T00:10:55.647Z,100509.80
2023-03-03T00:13:28.935Z,100502.04
2023-03-03T00:16:15.068Z,100493.88
2023-03-03T00:18:48.432Z,100490.10
2023-03-03T00:21:30.336Z,100490.42
2023-03-03T00:24:17.049Z,100486.73
2023-03-03T00:26:51.489Z,100488.81
2023-03-03T00:29:42.125Z,100487.11
2023-03-03T00:32:25.643Z,100486.17
2023-03-03T00:35:23.510Z,100485.58
2023-03-03T00:37:59.551Z,100470.64
2023-03-03T00:40:37.293Z,100474.08
2023-03-03T00:43:20.782Z,100479.73
2023-03-03T00:45:55.038Z,100478.88
2023-03-03T00:48:30.026Z,100474.97
2023-03-03T00:51:10.461Z,100478.88
2023-03-03T00:53:42.922Z,100473.49
2023-03-03T00:56:15.370Z,100469.23
2023-03-03T00:58:48.423Z,100469.10
2023-03-03T01:01:23.148Z,100469.23
2023-03-03T01:03:57.627Z,100472.32
2023-03-03T01:06:30.907Z,100470.46
2023-03-03T01:09:03.426Z,100472.17
2023-03-03T01:11:35.947Z,100476.67
2023-03-03T01:14:08.640Z,100477.43
2023-03-03T01:16:41.740Z,100477.86
2023-03-03T01:19:14.197Z,100472.51
2023-03-03T01:21:46.602Z,100468.59
2023-03-03T01:24:19.070Z,100466.98
2023-03-03T01:26:51.624Z,100457.30
2023-03-03T01:29:24.051Z,100456.73
2023-03-03T01:31:56.813Z,100458.04
2023-03-03T01:34:29.338Z,100460.27
2023-03-03T01:37:02.191Z,100455.55
2023-03-03T01:39:34.678Z,100451.55
2023-03-03T01:42:07.443Z,100448.86
2023-03-03T01:44:39.855Z,100445.22
2023-03-03T01:47:16.862Z,100438.58
2023-03-03T01:49:57.467Z,100434.96
2023-03-03T01:52:35.167Z,100433.86
2023-03-03T01:55:14.090Z,100426.82
2023-03-03T01:57:50.587Z,100415.86
2023-03-03T02:00:23.314Z,100411.89
2023-03-03T02:02:56.748Z,100394.60
2023-03-03T02:05:30.269Z,100387.33
2023-03-03T02:08:03.099Z,100376.20
2023-03-03T02:10:36.622Z,100377.71
2023-03-03T02:13:09.178Z,100377.73
2023-03-03T02:15:41.705Z,100391.64
2023-03-03T02:18:16.777Z,100395.08
2023-03-03T02:20:59.276Z,100397.40
2023-03-03T02:23:36.571Z,100402.73
2023-03-03T02:26:16.569Z,100414.98
2023-03-03T02:28:48.973Z,100415.02
2023-03-03T02:31:24.316Z,100406.98
2023-03-03T02:33:57.405Z,100406.45
2023-03-03T02:36:31.796Z,100403.52
2023-03-03T02:39:08.561Z,100401.13
2023-03-03T02:41:46.143Z,100390.52
2023-03-03T02:44:20.552Z,100383.34
2023-03-03T02:46:55.324Z,100383.31
2023-03-03T02:49:30.043Z,100377.65
2023-03-03T02:52:04.161Z,100377.45
2023-03-03T02:54:36.733Z,100370.71
2023-03-03T02:57:10.045Z,100367.72
2023-03-03T02:59:42.432Z,100363.89
2023-03-03T03:02:19.402Z,100364.57
2023-03-03T03:04:52.119Z,100368.98
2023-03-03T03:07:25.639Z,100370.36
2023-03-03T03:09:59.666Z,100375.53
2023-03-03T03:12:33.765Z,100373.88
2023-03-03T03:15:10.034Z,100367.14
2023-03-03T03:17:43.641Z,100372.44
2023-03-03T03:20:17.534Z,100376.23
2023-03-03T03:22:50.595Z,100371.56
2023-03-03T03:25:23.367Z,100367.19
2023-03-03T03:27:56.007Z,100366.65
2023-03-03T03:30:28.624Z,100370.09
2023-03-03T03:33:00.912Z,100364.28
2023-03-03T03:35:33.742Z,100367.52
2023-03-03T03:38:06.401Z,100368.08
2023-03-03T03:40:38.707Z,100368.13
2023-03-03T03:43:10.963Z,100366.52
2023-03-03T03:45:45.202Z,100372.79
2023-03-03T03:48:20.060Z,100363.73
2023-03-03T03:50:53.817Z,100364.60
2023-03-03T03:53:26.507Z,100367.86
2023-03-03T03:55:58.822Z,100372.41
2023-03-03T03:58:31.762Z,100367.84
2023-03-03T04:01:08.701Z,100377.80
2023-03-03T04:03:45.559Z,100384.69
2023-03-03T04:06:20.447Z,100387.30
2023-03-03T04:08:52.841Z,100385.39
2023-03-03T04:11:26.949Z,100388.43
2023-03-03T04:13:59.430Z,100389.86
2023-03-03T04:16:31.962Z,100382.13
2023-03-03T04:19:04.519Z,100377.75
2023-03-03T04:21:38.288Z,100374.68
2023-03-03T04:24:11.311Z,100367.44
2023-03-03T04:26:44.069Z,100364.83
2023-03-03T04:29:16.429Z,100372.53
2023-03-03T04:31:49.295Z,100370.27
2023-03-03T04:34:22.534Z,100368.21
2023-03-03T04:36:55.243Z,100372.84
2023-03-03T04:39:29.139Z,100371.69
2023-03-03T04:42:02.665Z,100369.85
2023-03-03T04:44:35.392Z,100362.81
2023-03-03T04:47:08.190Z,100364.41
2023-03-03T04:49:40.987Z,100365.79
2023-03-03T04:52:14.390Z,100355.45
2023-03-03T04:54:47.203Z,100350.67
2023-03-03T04:57:19.614Z,100353.19
2023-03-03T04:59:51.939Z,100349.66
2023-03-03T05:02:24.419Z,100338.98
2023-03-03T05:04:57.572Z,100336.20
2023-03-03T05:07:29.929Z,100332.80
2023-03-03T05:10:02.209Z,100323.94
2023-03-03T05:12:34.516Z,100323.91
2023-03-03T05:15:09.042Z,100330.05
2023-03-03T05:17:41.582Z,100323.67
2023-03-03T05:20:16.076Z,100320.94
2023-03-03T05:22:48.648Z,100319.46
2023-03-03T05:25:21.953Z,100311.48
2023-03-03T05:27:55.055Z,100316.77
2023-03-03T05:30:27.350Z,100322.95
2023-03-03T05:33:00.763Z,100323.98
2023-03-03T05:35:33.494Z,100323.98
2023-03-03T05:38:05.822Z,100331.83
2023-03-03T05:40:38.978Z,100334.54
2023-03-03T05:43:11.338Z,100333.40
2023-03-03T05:45:43.609Z,100336.33
2023-03-03T05:48:16.066Z,100334.24
2023-03-03T05:50:48.327Z,100337.00
2023-03-03T05:53:20.730Z,100341.63
2023-03-03T05:55:52.948Z,100346.84
2023-03-03T05:58:25.345Z,100343.51
2023-03-03T06:00:57.695Z,100336.70
2023-03-03T06:03:30.021Z,100326.66
2023-03-03T06:06:02.304Z,100333.23
2023-03-03T06:08:34.621Z,100329.27
2023-03-03T06:11:07.074Z,100336.16
2023-03-03T06:13:39.969Z,100340.34
2023-03-03T06:16:12.554Z,100351.89
2023-03-03T06:18:44.850Z,100355.23
2023-03-03T06:21:17.168Z,100356.65
2023-03-03T06:23:49.493Z,100360.13
2023-03-03T06:26:21.823Z,100363.69
2023-03-03T06:28:55.418Z,100372.85
2023-03-03T06:31:28.737Z,100375.79
2023-03-03T06:34:01.077Z,100379.14
2023-03-03T06:36:33.357Z,100376.66
2023-03-03T06:39:05.899Z,100376.73
2023-03-03T06:41:38.323Z,100373.63
2023-03-03T06:44:11.974Z,100376.55
2023-03-03T06:46:44.339Z,100386.35
2023-03-03T06:49:16.702Z,100390.67
2023-03-03T06:51:49.053Z,100390.02
2023-03-03T06:54:25.097Z,100384.81
2023-03-03T06:57:04.493Z,100389.11
2023-03-03T06:59:36.786Z,100383.25
2023-03-03T07:02:18.070Z,100384.98
2023-03-03T07:04:50.966Z,100387.78
2023-03-03T07:07:24.976Z,100390.53
2023-03-03T07:09:58.377Z,100388.26
2023-03-03T07:12:34.083Z,100391.86
2023-03-03T07:15:17.713Z,100397.20
2023-03-03T07:17:53.748Z,100408.06
2023-03-03T07:20:33.517Z,100413.63
2023-03-03T07:23:16.979Z,100414.98
2023-03-03T07:25:49.379Z,100415.70
2023-03-03T07:28:25.361Z,100415.76
2023-03-03T07:30:59.326Z,100425.20
2023-03-03T07:33:36.302Z,100420.61
2023-03-03T07:36:28.764Z,100418.80
2023-03-03T07:39:03.458Z,100416.95
2023-03-03T07:41:37.874Z,100420.73
2023-03-03T07:44:22.968Z,100417.02
2023-03-03T07:46:55.241Z,100408.21
2023-03-03T07:49:35.268Z,100409.44
2023-03-03T07:52:26.134Z,100412.84
2023-03-03T07:55:01.212Z,100414.42
2023-03-03T07:57:39.944Z,100413.91
2023-03-03T08:00:50.891Z,100415.17
2023-03-03T08:03:23.810Z,100419.54
2023-03-03T08:05:56.108Z,100416.77
2023-03-03T08:08:37.109Z,100422.66
2023-03-03T08:11:10.031Z,100437.25
2023-03-03T08:13:44.860Z,100445.04
2023-03-03T08:16:31.782Z,100447.34
2023-03-03T08:19:06.456Z,100447.29
2023-03-03T08:21:38.732Z,100444.50
2023-03-03T08:24:11.027Z,100448.20
2023-03-03T08:26:44.043Z,100448.19
2023-03-03T08:29:16.295Z,100444.13
2023-03-03T08:31:48.647Z,100441.66
2023-03-03T08:34:20.900Z,100444.14
2023-03-03T08:36:53.243Z,100437.29
2023-03-03T08:39:25.465Z,100441.39
2023-03-03T08:41:57.853Z,100434.02
2023-03-03T08:44:30.234Z,100438.73
2023-03-03T08:47:02.846Z,100433.05
2023-03-03T08:49:35.054Z,100424.05
2023-03-03T08:52:07.665Z,100419.86
2023-03-03T08:54:39.989Z,100413.05
2023-03-03T08:57:12.286Z,100413.31
2023-03-03T08:59:44.511Z,100415.48
2023-03-03T09:02:17.307Z,100413.14
2023-03-03T09:04:49.693Z,100409.66
2023-03-03T09:07:22.052Z,100411.14
2023-03-03T09:09:54.362Z,100407.58
2023-03-03T09:12:34.619Z,100405.56
2023-03-03T09:15:18.489Z,100404.77
2023-03-03T09:17:51.635Z,100404.30
2023-03-03T09:20:37.364Z,100406.30
2023-03-03T09:23:37.378Z,100408.47
2023-03-03T09:26:45.648Z,100401.80
2023-03-03T09:29:25.130Z,100403.57
2023-03-03T09:31:59.227Z,100398.69
2023-03-03T09:34:41.809Z,100397.63
2023-03-03T09:37:24.047Z,100394.14
2023-03-03T09:39:58.487Z,100398.86
2023-03-03T09:42:54.874Z,100410.12
2023-03-03T09:45:41.922Z,100415.87
2023-03-03T09:48:51.125Z,100419.42
2023-03-03T09:51:40.391Z,100416.34
2023-03-03T09:54:32.062Z,100416.55
2023-03-03T09:57:13.224Z,100416.38
2023-03-03T10:00:00.313Z,100419.16
2023-03-03T10:02:45.252Z,100422.16
2023-03-03T10:05:40.640Z,100423.73
2023-03-03T10:08:36.265Z,100425.61
2023-03-03T10:11:19.573Z,100418.27
2023-03-03T10:14:09.323Z,100410.63
2023-03-03T10:16:56.540Z,100403.61
2023-03-03T10:19:40.416Z,100402.64
2023-03-03T10:22:24.400Z,100402.39
2023-03-03T10:25:09.949Z,100399.95
2023-03-03T10:27:46.979Z,100395.87
2023-03-03T10:30:39.928Z,100391.70
2023-03-03T10:33:25.114Z,100391.50
2023-03-03T10:36:20.227Z,100399.16
2023-03-03T10:39:04.403Z,100399.55
2023-03-03T10:42:00.679Z,100397.27
2023-03-03T10:44:47.278Z,100398.58
2023-03-03T10:47:47.159Z,100397.02
2023-03-03T10:50:28.632Z,100394.80
2023-03-03T10:53:20.063Z,100390.98
2023-03-03T10:56:02.392Z,100384.13
2023-03-03T10:58:59.852Z,100376.05
2023-03-03T11:01:46.974Z,100365.60
2023-03-03T11:04:34.580Z,100359.14
2023-03-03T11:07:13.338Z,100356.89
2023-03-03T11:10:00.908Z,100346.56
2023-03-03T11:12:48.063Z,100340.56
2023-03-03T11:15:46.191Z,100332.23
2023-03-03T11:18:39.326Z,100329.44
2023-03-03T11:21:20.877Z,100332.05
2023-03-03T11:24:16.540Z,100325.55
2023-03-03T11:27:03.965Z,100321.45
2023-03-03T11:29:48.782Z,100317.72
2023-03-03T11:32:28.619Z,100319.83
2023-03-03T11:35:14.985Z,100320.55
2023-03-03T11:37:56.078Z,100321.21
2023-03-03T11:40:34.033Z,100325.06
2023-03-03T11:43:18.588Z,100329.20
2023-03-03T11:46:01.649Z,100328.05
2023-03-03T11:48:40.886Z,100328.80
2023-03-03T11:51:21.188Z,100329.36
2023-03-03T11:54:02.448Z,100332.44
2023-03-03T11:56:41.143Z,100328.04
2023-03-03T11:59:43.458Z,100324.17
2023-03-03T12:02:30.516Z,100319.02
2023-03-03T12:05:10.103Z,100317.90
2023-03-03T12:07:50.814Z,100312.02
2023-03-03T12:10:29.431Z,100311.78
2023-03-03T12:13:07.839Z,100311.98
2023-03-03T12:15:49.132Z,100313.23
2023-03-03T12:18:43.723Z,100314.56
2023-03-03T12:21:33.681Z,100310.48
2023-03-03T12:24:34.308Z,100309.90
2023-03-03T12:27:16.442Z,100309.33
2023-03-03T12:30:05.182Z,100306.42
2023-03-03T12:32:56.678Z,100310.11
2023-03-03T12:35:37.110Z,100303.63
2023-03-03T12:38:19.552Z,100292.93
2023-03-03T12:40:59.180Z,100283.98
2023-03-03T12:43:43.694Z,100284.34
2023-03-03T12:46:28.517Z,100277.30
2023-03-03T12:49:01.421Z,100279.45
2023-03-03T12:51:44.071Z,100277.34
2023-03-03T12:54:40.294Z,100271.21
2023-03-03T12:57:27.630Z,100268.15
2023-03-03T13:00:20.669Z,100268.48
2023-03-03T13:03:06.177Z,100261.21
2023-03-03T13:05:45.785Z,100263.20
2023-03-03T13:08:44.291Z,100267.58
2023-03-03T13:11:37.396Z,100267.79
2023-03-03T13:14:18.147Z,100259.98
2023-03-03T13:16:58.173Z,100256.96
2023-03-03T13:19:35.669Z,100260.41
2023-03-03T13:22:14.951Z,100259.13
2023-03-03T13:25:00.398Z,100254.49
2023-03-03T13:27:38.836Z,100256.04
2023-03-03T13:30:21.776Z,100250.23
2023-03-03T13:32:59.006Z,100249.39
2023-03-03T13:35:43.076Z,100243.79
2023-03-03T13:38:20.185Z,100243.80
2023-03-03T13:40:56.696Z,100238.84
2023-03-03T13:43:35.835Z,100240.27
2023-03-03T13:46:16.020Z,100238.63
2023-03-03T13:49:01.691Z,100243.18
2023-03-03T13:51:44.077Z,100241.83
2023-03-03T13:54:31.094Z,100238.66
2023-03-03T13:57:21.618Z,100239.73
2023-03-03T14:00:04.238Z,100241.04
2023-03-03T14:03:05.151Z,100247.28
2023-03-03T14:05:42.672Z,100248.03
2023-03-03T14:08:27.219Z,100248.42
2023-03-03T14:11:11.527Z,100245.89
2023-03-03T14:13:58.935Z,100245.23
2023-03-03T14:16:44.786Z,100241.50
2023-03-03T14:19:22.993Z,100242.41
2023-03-03T14:22:08.234Z,100240.02
2023-03-03T14:25:05.514Z,100238.52
2023-03-03T14:27:41.463Z,100239.04
2023-03-03T14:30:35.501Z,100242.31
2023-03-03T14:33:25.789Z,100230.02
2023-03-03T14:36:12.316Z,100228.64
2023-03-03T14:38:51.821Z,100224.08
2023-03-03T14:41:37.283Z,100219.53
2023-03-03T14:44:30.792Z,100214.80
2023-03-03T14:47:23.011Z,100216.42
2023-03-03T14:50:00.087Z,100216.39
2023-03-03T14:52:35.083Z,100211.68
2023-03-03T14:55:34.557Z,100208.67
2023-03-03T14:58:09.950Z,100205.30
2023-03-03T15:00:42.300Z,100204.52
2023-03-03T15:03:28.064Z,100199.31
2023-03-03T15:06:00.552Z,100201.17
2023-03-03T15:08:37.596Z,100200.91
2023-03-03T15:11:22.129Z,100202.70
2023-03-03T15:13:55.218Z,100197.69
2023-03-03T15:16:35.852Z,100197.32
2023-03-03T15:19:46.968Z,100200.41
2023-03-03T15:22:32.181Z,100194.58
2023-03-03T15:25:10.598Z,100187.17
2023-03-03T15:27:47.019Z,100183.04
2023-03-03T15:30:30.228Z,100180.88
2023-03-03T15:33:12.614Z,100177.83
2023-03-03T15:35:52.517Z,100173.14
2023-03-03T15:38:39.074Z,100180.27
2023-03-03T15:44:29.118Z,100183.49
2023-03-03T15:47:23.088Z,100181.19
2023-03-03T15:50:06.855Z,100177.46
2023-03-03T15:52:50.506Z,100171.27
2023-03-03T15:55:48.389Z,100173.55
2023-03-03T15:58:39.997Z,100163.19
2023-03-03T16:01:19.531Z,100164.48
2023-03-03T16:03:57.408Z,100164.23
2023-03-03T16:06:41.939Z,100172.92
2023-03-03T16:09:25.599Z,100174.55
2023-03-03T16:12:08.689Z,100164.35
2023-03-03T16:15:12.572Z,100165.06
2023-03-03T16:17:54.865Z,100168.59
2023-03-03T16:20:34.611Z,100168.45
2023-03-03T16:23:23.828Z,100168.42
2023-03-03T16:26:07.213Z,100169.41
2023-03-03T16:28:52.785Z,100161.30
2023-03-03T16:31:30.635Z,100152.63
2023-03-03T16:34:13.685Z,100154.95
2023-03-03T16:37:01.651Z,100151.23
2023-03-03T16:39:43.992Z,100154.81
2023-03-03T16:42:24.536Z,100152.58
2023-03-03T16:45:10.429Z,100150.10
2023-03-03T16:47:54.911Z,100149.24
2023-03-03T16:50:32.448Z,100145.38
2023-03-03T16:53:16.256Z,100149.75
2023-03-03T16:55:58.348Z,100149.30
2023-03-03T16:58:46.555Z,100148.23
2023-03-03T17:01:29.564Z,100144.05
2023-03-03T17:04:12.076Z,100149.70
2023-03-03T17:06:50.317Z,100149.70
2023-03-03T17:09:52.070Z,100141.70
2023-03-03T17:12:42.377Z,100139.79
2023-03-03T17:15:33.929Z,100133.21
2023-03-03T17:18:15.885Z,100126.68
2023-03-03T17:20:52.765Z,100123.91
2023-03-03T17:23:47.581Z,100127.20
2023-03-03T17:26:33.576Z,100120.66
2023-03-03T17:29:21.142Z,100118.34
2023-03-03T17:31:59.477Z,100124.52
2023-03-03T17:34:43.700Z,100123.60
2023-03-03T17:37:31.334Z,100119.71
2023-03-03T17:40:24.642Z,100122.86
2023-03-03T17:43:02.390Z,100120.08
2023-03-03T17:45:39.622Z,100115.69
2023-03-03T17:48:31.933Z,100119.02
2023-03-03T17:51:14.846Z,100117.58
2023-03-03T17:54:06.013Z,100110.11
2023-03-03T17:56:49.208Z,100106.14
2023-03-03T17:59:35.935Z,100110.48
2023-03-03T18:02:56.318Z,100112.41
2023-03-03T18:05:49.680Z,100106.25
2023-03-03T18:08:49.186Z,100101.19
2023-03-03T18:11:36.706Z,100100.39
2023-03-03T18:14:40.809Z,100092.05
2023-03-03T18:17:41.190Z,100080.31
2023-03-03T18:20:46.642Z,100079.81
2023-03-03T18:23:45.399Z,100075.36
2023-03-03T18:26:39.848Z,100073.11
2023-03-03T18:29:28.223Z,100069.85
2023-03-03T18:32:20.705Z,100065.93
2023-03-03T18:35:31.643Z,100063.48
2023-03-03T18:38:26.814Z,100064.60
2023-03-03T18:41:02.331Z,100062.91
2023-03-03T18:44:23.930Z,100061.50
2023-03-03T18:47:05.243Z,100054.27
2023-03-03T18:50:01.032Z,100048.52
2023-03-03T18:52:32.129Z,100048.77
2023-03-03T18:55:27.560Z,100046.46
2023-03-03T18:58:34.062Z,100043.13
2023-03-03T19:01:41.598Z,100040.56
2023-03-03T19:04:22.672Z,100036.52
2023-03-03T19:07:19.021Z,100036.23
2023-03-03T19:10:01.861Z,100032.20
2023-03-03T19:12:54.406Z,100030.73
2023-03-03T19:15:45.796Z,100035.35
2023-03-03T19:18:21.345Z,100038.06
2023-03-03T19:20:59.437Z,100043.01
2023-03-03T19:23:59.896Z,100040.05
2023-03-03T19:27:01.730Z,100041.42
2023-03-03T19:30:12.962Z,100041.98
2023-03-03T19:33:10.147Z,100038.66
2023-03-03T19:35:55.893Z,100028.20
2023-03-03T19:38:37.614Z,100027.35
2023-03-03T19:41:26.177Z,100024.78
2023-03-03T19:44:08.903Z,100020.92
2023-03-03T19:46:56.418Z,100021.41
2023-03-03T19:49:47.262Z,100021.45
2023-03-03T19:52:28.802Z,100016.42
2023-03-03T19:55:19.801Z,100023.40
2023-03-03T19:58:05.981Z,100016.27
2023-03-03T20:00:43.490Z,100010.28
2023-03-03T20:03:35.205Z,99999.78
2023-03-03T20:06:19.643Z,99999.77
2023-03-03T20:09:00.805Z,99992.34
2023-03-03T20:11:51.808Z,99988.85
2023-03-03T20:14:36.718Z,99988.64
2023-03-03T20:17:25.694Z,99989.15
2023-03-03T20:20:03.754Z,99984.70
2023-03-03T20:22:43.900Z,99977.82
2023-03-03T20:25:37.698Z,99978.83
2023-03-03T20:28:26.129Z,99973.98
2023-03-03T20:31:09.136Z,99966.79
2023-03-03T20:33:51.971Z,99955.80
2023-03-03T20:36:34.965Z,99950.45
2023-03-03T20:39:11.245Z,99950.75
2023-03-03T20:41:58.880Z,99949.77
2023-03-03T20:44:45.508Z,99947.43
2023-03-03T20:47:30.100Z,99946.27
2023-03-03T20:50:15.604Z,99951.04
2023-03-03T20:53:00.265Z,99941.70
2023-03-03T20:55:46.510Z,99940.45
2023-03-03T20:58:28.360Z,99933.06
2023-03-03T21:01:06.705Z,99929.55
2023-03-03T21:03:42.015Z,99931.66
2023-03-03T21:06:16.490Z,99922.98
2023-03-03T21:08:53.440Z,99923.13
2023-03-03T21:11:42.596Z,99923.58
2023-03-03T21:14:21.357Z,99914.16
2023-03-03T21:16:56.665Z,99905.17
2023-03-03T21:19:32.493Z,99902.27
2023-03-03T21:22:05.672Z,99896.80
2023-03-03T21:24:53.075Z,99888.85
2023-03-03T21:27:30.664Z,99882.94
2023-03-03T21:30:09.498Z,99882.30
2023-03-03T21:32:44.973Z,99880.17
2023-03-03T21:35:18.991Z,99875.02
2023-03-03T21:37:53.159Z,99878.23
2023-03-03T21:40:27.553Z,99876.48
2023-03-03T21:43:01.500Z,99877.31
2023-03-03T21:45:33.619Z,99877.60
2023-03-03T21:48:07.005Z,99875.08
2023-03-03T21:50:42.772Z,99871.30
2023-03-03T21:53:14.791Z,99875.35
2023-03-03T21:55:48.988Z,99870.96
2023-03-03T21:58:21.915Z,99871.36
2023-03-03T22:00:54.064Z,99872.45
2023-03-03T22:03:26.189Z,99874.20
2023-03-03T22:05:58.341Z,99870.62
2023-03-03T22:08:30.577Z,99868.18
2023-03-03T22:11:02.649Z,99865.43
2023-03-03T22:13:34.864Z,99860.80
2023-03-03T22:16:08.398Z,99859.20
2023-03-03T22:18:40.549Z,99859.48
2023-03-03T22:21:12.652Z,99854.52
2023-03-03T22:23:44.884Z,99854.96
2023-03-03T22:26:17.139Z,99852.23
2023-03-03T22:28:49.567Z,99849.16
2023-03-03T22:31:21.900Z,99846.91
2023-03-03T22:33:54.147Z,99845.60
2023-03-03T22:36:26.472Z,99839.52
2023-03-03T22:38:58.580Z,99836.64
2023-03-03T22:41:30.866Z,99825.65
2023-03-03T22:44:03.323Z,99821.95
2023-03-03T22:46:35.488Z,99816.67
2023-03-03T22:49:07.803Z,99815.89
2023-03-03T22:51:40.230Z,99816.35
2023-03-03T22:54:12.887Z,99812.72
2023-03-03T22:56:45.087Z,99806.49
2023-03-03T22:59:17.754Z,99803.48
2023-03-03T23:01:50.334Z,99804.52
2023-03-03T23:04:22.605Z,99800.81
2023-03-03T23:06:54.745Z,99794.99
2023-03-03T23:09:27.065Z,99789.30
2023-03-03T23:11:59.394Z,99783.61
2023-03-03T23:14:31.768Z,99777.05
2023-03-03T23:17:03.932Z,99776.17
2023-03-03T23:19:36.127Z,99772.32
2023-03-03T23:22:08.192Z,99761.61
2023-03-03T23:24:40.294Z,99756.10
2023-03-03T23:27:13.352Z,99745.30
2023-03-03T23:29:45.560Z,99735.25
2023-03-03T23:32:17.789Z,99726.50
2023-03-03T23:34:49.994Z,99720.34
2023-03-03T23:37:22.731Z,99709.62
2023-03-03T23:39:54.844Z,99707.27
2023-03-03T23:42:27.955Z,99692.34
2023-03-03T23:45:00.387Z,99672.80
2023-03-03T23:47:32.892Z,99678.42
2023-03-03T23:50:05.510Z,99682.95
2023-03-03T23:52:37.906Z,99670.43
2023-03-03T23:55:12.302Z,99674.18
2023-03-03T23:57:44.512Z,99665.25
